METAR Data
IDs: Format: Raw Decoded Include TAF

Data at: 0340 UTC 19 Oct 2021

KSAT 190251Z 13008KT 10SM BKN230 19/13 A3006 RMK AO2 SLP166 T01940128 53012